createdAt,value
2022-09-10T00:02:45.715Z,100288.00
2022-09-10T00:08:49.481Z,100281.00
2022-09-10T00:14:53.855Z,100294.00
2022-09-10T00:20:57.360Z,100288.00
2022-09-10T00:26:59.974Z,100292.00
2022-09-10T00:33:02.144Z,100276.00
2022-09-10T00:39:13.593Z,100265.00
2022-09-10T00:45:24.902Z,100277.00
2022-09-10T00:51:31.405Z,100278.00
2022-09-10T00:57:33.555Z,100275.00
2022-09-10T01:03:35.932Z,100276.00
2022-09-10T01:09:39.911Z,100267.00
2022-09-10T01:16:03.810Z,100273.00
2022-09-10T01:22:36.154Z,100265.00
2022-09-10T01:29:03.463Z,100275.00
2022-09-10T01:35:13.827Z,100274.00
2022-09-10T01:41:17.201Z,100288.00
2022-09-10T01:47:39.546Z,100283.00
2022-09-10T01:54:11.939Z,100270.00
2022-09-10T02:00:18.159Z,100267.00
2022-09-10T02:06:28.299Z,100272.00
2022-09-10T02:12:30.939Z,100260.00
2022-09-10T02:18:52.077Z,100256.00
2022-09-10T02:24:54.589Z,100242.00
2022-09-10T02:30:56.716Z,100232.00
2022-09-10T02:36:59.319Z,100232.00
2022-09-10T02:43:01.615Z,100240.00
2022-09-10T02:49:05.183Z,100246.00
2022-09-10T02:55:13.105Z,100248.00
2022-09-10T03:01:19.670Z,100247.00
2022-09-10T03:07:29.124Z,100248.00
2022-09-10T03:13:31.307Z,100249.00
2022-09-10T03:19:34.345Z,100254.00
2022-09-10T03:25:36.758Z,100245.00
2022-09-10T03:31:40.219Z,100250.00
2022-09-10T03:37:42.540Z,100254.00
2022-09-10T03:43:45.126Z,100256.00
2022-09-10T03:49:47.420Z,100253.00
2022-09-10T03:55:51.390Z,100256.00
2022-09-10T04:01:53.492Z,100264.00
2022-09-10T04:07:59.180Z,100262.00
2022-09-10T04:14:02.044Z,100251.00
2022-09-10T04:20:04.502Z,100242.00
2022-09-10T04:26:17.741Z,100247.00
2022-09-10T04:32:23.096Z,100252.00
2022-09-10T04:38:25.638Z,100246.00
2022-09-10T04:44:29.846Z,100252.00
2022-09-10T04:50:32.327Z,100241.00
2022-09-10T04:56:52.742Z,100246.00
2022-09-10T05:02:55.401Z,100234.00
2022-09-10T05:08:58.806Z,100233.00
2022-09-10T05:15:03.553Z,100196.00
2022-09-10T05:21:06.386Z,100106.00
2022-09-10T05:27:09.726Z,100165.00
2022-09-10T05:33:12.974Z,100122.00
2022-09-10T05:39:16.014Z,100103.00
2022-09-10T05:45:20.567Z,100106.00
2022-09-10T05:51:22.997Z,100102.00
2022-09-10T05:57:26.142Z,100099.00
2022-09-10T06:03:28.669Z,100087.00
2022-09-10T06:09:35.347Z,100094.00
2022-09-10T06:16:01.243Z,100103.00
2022-09-10T06:22:04.449Z,100091.00
2022-09-10T06:28:13.083Z,100100.00
2022-09-10T06:34:19.200Z,100108.00
2022-09-10T06:40:21.990Z,100101.00
2022-09-10T06:47:02.891Z,100121.00
2022-09-10T06:52:49.593Z,100170.00
2022-09-10T06:58:57.545Z,100249.00
2022-09-10T07:05:06.875Z,100253.00
2022-09-10T07:11:15.275Z,100241.00
2022-09-10T07:17:21.543Z,100230.00
2022-09-10T07:23:24.127Z,100206.00
2022-09-10T07:29:31.541Z,100118.00
2022-09-10T07:35:38.750Z,100164.00
2022-09-10T07:41:42.073Z,100163.00
2022-09-10T07:47:48.186Z,100147.00
2022-09-10T07:53:56.129Z,100154.00
2022-09-10T08:00:00.849Z,100142.00
2022-09-10T08:06:17.363Z,100152.00
2022-09-10T08:12:25.784Z,100150.00
2022-09-10T08:18:30.023Z,100155.00
2022-09-10T08:24:33.769Z,100149.00
2022-09-10T08:30:36.662Z,100135.00
2022-09-10T08:36:39.857Z,100123.00
2022-09-10T08:42:50.555Z,100128.00
2022-09-10T08:49:09.217Z,100123.00
2022-09-10T08:55:11.678Z,100118.00
2022-09-10T09:01:45.303Z,100120.00
2022-09-10T09:07:49.850Z,100117.00
2022-09-10T09:14:17.187Z,100121.00
2022-09-10T09:20:36.761Z,100112.00
2022-09-10T09:26:39.879Z,100110.00
2022-09-10T09:32:45.614Z,100143.00
2022-09-10T09:38:51.322Z,100171.00
2022-09-10T09:45:08.394Z,100153.00
2022-09-10T09:51:13.911Z,100120.00
2022-09-10T09:57:19.883Z,100074.00
2022-09-10T10:03:28.446Z,100067.00
2022-09-10T10:09:34.003Z,100061.00
2022-09-10T10:15:42.459Z,100060.00
2022-09-10T10:21:47.267Z,100051.00
2022-09-10T10:27:51.639Z,100044.00
2022-09-10T10:34:15.520Z,100040.00
2022-09-10T10:40:47.013Z,100035.00
2022-09-10T10:47:16.681Z,100097.00
2022-09-10T10:53:39.436Z,100034.00
2022-09-10T11:00:05.537Z,100010.00
2022-09-10T11:06:20.644Z,100080.00
2022-09-10T11:12:35.123Z,100067.00
2022-09-10T11:18:43.981Z,100022.00
2022-09-10T11:24:53.177Z,99997.00
2022-09-10T11:31:03.564Z,100018.00
2022-09-10T11:37:19.740Z,100017.00
2022-09-10T11:43:37.748Z,99945.00
2022-09-10T11:49:48.573Z,100029.00
2022-09-10T11:56:09.797Z,100027.00
2022-09-10T12:02:30.758Z,99958.00
2022-09-10T12:08:57.881Z,100038.00
2022-09-10T12:15:00.154Z,100037.00
2022-09-10T12:21:09.136Z,100016.00
2022-09-10T12:27:18.781Z,100017.00
2022-09-10T12:33:21.751Z,100014.00
2022-09-10T12:39:26.131Z,100015.00
2022-09-10T12:46:02.825Z,100006.00
2022-09-10T12:52:06.811Z,99986.00
2022-09-10T12:58:41.597Z,99978.00
2022-09-10T13:04:47.681Z,99977.00
2022-09-10T13:11:22.935Z,99963.00
2022-09-10T13:17:59.893Z,99947.00
2022-09-10T13:24:02.673Z,99940.00
2022-09-10T13:30:24.359Z,99939.00
2022-09-10T13:36:45.569Z,99932.00
2022-09-10T13:43:06.823Z,99925.00
2022-09-10T13:49:21.963Z,99915.00
2022-09-10T13:55:29.996Z,99899.00
2022-09-10T14:01:52.713Z,99899.00
2022-09-10T14:08:02.116Z,99884.00
2022-09-10T14:14:09.826Z,99871.00
2022-09-10T14:20:39.944Z,99884.00
2022-09-10T14:26:42.010Z,99884.00
2022-09-10T14:32:46.459Z,99885.00
2022-09-10T14:39:17.069Z,99861.00
2022-09-10T14:45:42.386Z,99861.00
2022-09-10T14:51:44.671Z,99864.00
2022-09-10T14:57:46.827Z,99875.00
2022-09-10T15:03:48.986Z,99874.00
2022-09-10T15:09:53.502Z,99873.00
2022-09-10T15:15:56.141Z,99854.00
2022-09-10T15:21:58.610Z,99863.00
2022-09-10T15:28:00.706Z,99882.00
2022-09-10T15:34:04.223Z,99896.00
2022-09-10T15:40:06.813Z,99904.00
2022-09-10T15:46:12.420Z,99911.00
2022-09-10T15:52:14.583Z,99922.00
2022-09-10T15:58:16.873Z,99933.00
2022-09-10T16:04:19.544Z,99931.00
2022-09-10T16:10:21.955Z,99927.00
2022-09-10T16:16:27.212Z,99942.00
2022-09-10T16:22:30.456Z,99944.00
2022-09-10T16:28:33.475Z,99946.00
2022-09-10T16:34:35.524Z,99943.00
2022-09-10T16:40:37.838Z,99935.00
2022-09-10T16:46:40.033Z,99941.00
2022-09-10T16:52:42.456Z,99947.00
2022-09-10T16:58:49.207Z,99953.00
2022-09-10T17:04:51.454Z,99969.00
2022-09-10T17:10:53.600Z,99962.00
2022-09-10T17:16:56.554Z,99959.00
2022-09-10T17:23:00.575Z,99956.00
2022-09-10T17:29:05.554Z,99961.00
2022-09-10T17:35:08.295Z,99965.00
2022-09-10T17:41:13.203Z,99980.00
2022-09-10T17:47:15.494Z,99988.00
2022-09-10T17:53:18.284Z,99981.00
2022-09-10T17:59:22.323Z,99977.00
2022-09-10T18:05:26.851Z,99977.00
2022-09-10T18:11:31.630Z,99978.00
2022-09-10T18:17:33.696Z,99981.00
2022-09-10T18:23:35.709Z,99985.00
2022-09-10T18:29:41.670Z,99992.00
2022-09-10T18:35:44.274Z,99993.00
2022-09-10T18:41:46.823Z,99991.00
2022-09-10T18:47:49.028Z,99998.00
2022-09-10T18:54:00.352Z,99991.00
2022-09-10T19:00:06.881Z,99989.00
2022-09-10T19:06:10.996Z,99980.00
2022-09-10T19:12:19.188Z,99969.00
2022-09-10T19:18:21.793Z,99983.00
2022-09-10T19:24:37.767Z,100013.00
2022-09-10T19:30:47.964Z,100006.00
2022-09-10T19:36:50.438Z,100012.00
2022-09-10T19:42:52.521Z,100009.00
2022-09-10T19:49:00.732Z,100014.00
2022-09-10T19:55:03.463Z,100018.00
2022-09-10T20:01:13.963Z,100024.00
2022-09-10T20:07:16.610Z,100029.00
2022-09-10T20:13:20.875Z,100034.00
2022-09-10T20:19:22.994Z,100032.00
2022-09-10T20:25:26.950Z,100036.00
2022-09-10T20:31:32.119Z,100032.00
2022-09-10T20:37:35.025Z,100033.00
2022-09-10T20:43:37.838Z,100048.00
2022-09-10T20:49:39.969Z,100042.00
2022-09-10T20:55:42.037Z,100038.00
2022-09-10T21:01:46.668Z,100048.00
2022-09-10T21:07:50.396Z,100057.00
2022-09-10T21:13:55.492Z,100045.00
2022-09-10T21:19:57.865Z,100061.00
2022-09-10T21:26:00.003Z,100055.00
2022-09-10T21:32:02.758Z,100057.00
2022-09-10T21:38:06.181Z,100048.00
2022-09-10T21:44:14.362Z,100039.00
2022-09-10T21:50:17.754Z,100040.00
2022-09-10T21:56:19.922Z,100052.00
2022-09-10T22:02:23.506Z,100050.00
2022-09-10T22:08:26.362Z,100048.00
2022-09-10T22:14:28.451Z,100070.00
2022-09-10T22:20:30.402Z,100069.00
2022-09-10T22:26:33.678Z,100058.00
2022-09-10T22:32:35.856Z,100064.00
2022-09-10T22:38:38.063Z,100068.00
2022-09-10T22:44:40.359Z,100070.00
2022-09-10T22:50:42.611Z,100059.00
2022-09-10T22:56:44.954Z,100061.00
2022-09-10T23:02:48.069Z,100054.00
2022-09-10T23:08:52.774Z,100060.00
2022-09-10T23:14:54.911Z,100056.00
2022-09-10T23:21:02.300Z,100043.00
2022-09-10T23:27:04.678Z,100044.00
2022-09-10T23:33:06.829Z,100038.00
2022-09-10T23:39:14.925Z,100026.00
2022-09-10T23:45:17.292Z,100026.00
2022-09-10T23:51:20.111Z,100030.00
2022-09-10T23:57:22.354Z,100039.00
